sensor_id;sensor_type;location;lat;lon;timestamp;pressure;altitude;pressure_sealevel;temperature;humidity
70954;BME280;58618;47.490;8.736;2023-01-08T00:01:16;96149.44;;;1.91;100.00
70954;BME280;58618;47.490;8.736;2023-01-08T00:03:46;96147.66;;;1.92;100.00
70954;BME280;58618;47.490;8.736;2023-01-08T00:06:16;96157.81;;;2.03;100.00
70954;BME280;58618;47.490;8.736;2023-01-08T00:08:44;96169.06;;;2.07;100.00
70954;BME280;58618;47.490;8.736;2023-01-08T00:11:12;96173.06;;;2.03;100.00
70954;BME280;58618;47.490;8.736;2023-01-08T00:13:39;96168.63;;;2.10;100.00
70954;BME280;58618;47.490;8.736;2023-01-08T00:16:09;96171.19;;;2.10;100.00
70954;BME280;58618;47.490;8.736;2023-01-08T00:18:37;96176.03;;;2.12;100.00
70954;BME280;58618;47.490;8.736;2023-01-08T00:21:07;96164.25;;;2.23;100.00
70954;BME280;58618;47.490;8.736;2023-01-08T00:23:35;96169.25;;;2.18;100.00
70954;BME280;58618;47.490;8.736;2023-01-08T00:26:04;96163.75;;;2.09;100.00
70954;BME280;58618;47.490;8.736;2023-01-08T00:28:32;96162.91;;;2.03;100.00
70954;BME280;58618;47.490;8.736;2023-01-08T00:31:01;96154.63;;;1.96;100.00
70954;BME280;58618;47.490;8.736;2023-01-08T00:33:30;96130.38;;;1.65;100.00
70954;BME280;58618;47.490;8.736;2023-01-08T00:35:57;96156.66;;;1.83;100.00
70954;BME280;58618;47.490;8.736;2023-01-08T00:38:26;96150.81;;;1.82;100.00
70954;BME280;58618;47.490;8.736;2023-01-08T00:40:54;96084.94;;;1.41;100.00
70954;BME280;58618;47.490;8.736;2023-01-08T00:43:22;96137.34;;;1.70;100.00
70954;BME280;58618;47.490;8.736;2023-01-08T00:45:49;96126.41;;;1.69;100.00
70954;BME280;58618;47.490;8.736;2023-01-08T00:48:19;96105.09;;;1.59;100.00
70954;BME280;58618;47.490;8.736;2023-01-08T00:50:47;96105.63;;;1.73;100.00
70954;BME280;58618;47.490;8.736;2023-01-08T00:53:14;96113.13;;;1.79;100.00
70954;BME280;58618;47.490;8.736;2023-01-08T00:55:43;96119.19;;;1.78;100.00
70954;BME280;58618;47.490;8.736;2023-01-08T00:58:10;96129.38;;;1.78;100.00
70954;BME280;58618;47.490;8.736;2023-01-08T01:00:38;96129.97;;;1.68;100.00
70954;BME280;58618;47.490;8.736;2023-01-08T01:03:06;96115.81;;;1.61;100.00
70954;BME280;58618;47.490;8.736;2023-01-08T01:05:33;96099.03;;;1.48;100.00
70954;BME280;58618;47.490;8.736;2023-01-08T01:08:01;96119.91;;;1.62;100.00
70954;BME280;58618;47.490;8.736;2023-01-08T01:10:28;96125.78;;;1.51;100.00
70954;BME280;58618;47.490;8.736;2023-01-08T01:12:57;96119.06;;;1.45;100.00
70954;BME280;58618;47.490;8.736;2023-01-08T01:15:24;96105.28;;;1.29;100.00
70954;BME280;58618;47.490;8.736;2023-01-08T01:17:51;96122.84;;;1.31;100.00
70954;BME280;58618;47.490;8.736;2023-01-08T01:20:19;96122.06;;;1.30;100.00
70954;BME280;58618;47.490;8.736;2023-01-08T01:22:46;96115.31;;;1.36;100.00
70954;BME280;58618;47.490;8.736;2023-01-08T01:25:13;96104.59;;;1.34;100.00
70954;BME280;58618;47.490;8.736;2023-01-08T01:27:41;96124.34;;;1.55;100.00
70954;BME280;58618;47.490;8.736;2023-01-08T01:30:10;96125.44;;;1.59;100.00
70954;BME280;58618;47.490;8.736;2023-01-08T01:32:38;96126.53;;;1.63;100.00
70954;BME280;58618;47.490;8.736;2023-01-08T01:35:06;96115.72;;;1.56;100.00
70954;BME280;58618;47.490;8.736;2023-01-08T01:37:33;96113.53;;;1.48;100.00
70954;BME280;58618;47.490;8.736;2023-01-08T01:40:00;96107.59;;;1.31;100.00
70954;BME280;58618;47.490;8.736;2023-01-08T01:42:27;96115.22;;;1.31;100.00
70954;BME280;58618;47.490;8.736;2023-01-08T01:45:17;96128.03;;;1.36;100.00
70954;BME280;58618;47.490;8.736;2023-01-08T01:47:48;96136.06;;;1.33;100.00
70954;BME280;58618;47.490;8.736;2023-01-08T01:50:22;96141.16;;;1.33;100.00
70954;BME280;58618;47.490;8.736;2023-01-08T01:53:00;96130.34;;;1.25;100.00
70954;BME280;58618;47.490;8.736;2023-01-08T01:55:28;96134.34;;;1.21;100.00
70954;BME280;58618;47.490;8.736;2023-01-08T01:58:00;96128.25;;;1.22;100.00
70954;BME280;58618;47.490;8.736;2023-01-08T02:00:31;96118.88;;;1.11;100.00
70954;BME280;58618;47.490;8.736;2023-01-08T02:02:59;96124.38;;;1.32;100.00
70954;BME280;58618;47.490;8.736;2023-01-08T02:05:32;96115.44;;;1.29;100.00
70954;BME280;58618;47.490;8.736;2023-01-08T02:08:06;96120.31;;;1.31;100.00
70954;BME280;58618;47.490;8.736;2023-01-08T02:10:41;96108.69;;;1.35;100.00
70954;BME280;58618;47.490;8.736;2023-01-08T02:13:24;96101.06;;;1.35;100.00
70954;BME280;58618;47.490;8.736;2023-01-08T02:15:57;96081.91;;;1.15;100.00
70954;BME280;58618;47.490;8.736;2023-01-08T02:18:36;96086.41;;;1.25;100.00
70954;BME280;58618;47.490;8.736;2023-01-08T02:21:09;96079.75;;;1.36;100.00
70954;BME280;58618;47.490;8.736;2023-01-08T02:23:43;96061.19;;;1.35;100.00
70954;BME280;58618;47.490;8.736;2023-01-08T02:26:16;96051.25;;;1.34;100.00
70954;BME280;58618;47.490;8.736;2023-01-08T02:28:48;96028.28;;;1.28;100.00
70954;BME280;58618;47.490;8.736;2023-01-08T02:31:17;96027.84;;;1.32;100.00
70954;BME280;58618;47.490;8.736;2023-01-08T02:33:45;96017.78;;;1.37;100.00
70954;BME280;58618;47.490;8.736;2023-01-08T02:39:08;96000.09;;;1.42;100.00
70954;BME280;58618;47.490;8.736;2023-01-08T02:44:34;95989.38;;;1.40;100.00
70954;BME280;58618;47.490;8.736;2023-01-08T02:47:08;95989.03;;;1.48;100.00
70954;BME280;58618;47.490;8.736;2023-01-08T02:49:38;95986.94;;;1.45;100.00
70954;BME280;58618;47.490;8.736;2023-01-08T02:52:16;96010.53;;;1.57;100.00
70954;BME280;58618;47.490;8.736;2023-01-08T02:54:45;96015.53;;;1.52;100.00
70954;BME280;58618;47.490;8.736;2023-01-08T02:57:15;96012.09;;;1.58;100.00
70954;BME280;58618;47.490;8.736;2023-01-08T02:59:45;96003.00;;;1.62;100.00
70954;BME280;58618;47.490;8.736;2023-01-08T03:02:15;95978.97;;;1.53;100.00
70954;BME280;58618;47.490;8.736;2023-01-08T03:04:45;95995.91;;;1.64;100.00
70954;BME280;58618;47.490;8.736;2023-01-08T03:07:14;95981.13;;;1.61;100.00
70954;BME280;58618;47.490;8.736;2023-01-08T03:09:42;96002.69;;;1.75;100.00
70954;BME280;58618;47.490;8.736;2023-01-08T03:12:13;95971.59;;;1.68;100.00
70954;BME280;58618;47.490;8.736;2023-01-08T03:14:49;95985.47;;;1.77;100.00
70954;BME280;58618;47.490;8.736;2023-01-08T03:17:22;95997.25;;;1.83;100.00
70954;BME280;58618;47.490;8.736;2023-01-08T03:19:53;95988.47;;;2.07;100.00
70954;BME280;58618;47.490;8.736;2023-01-08T03:22:22;95985.50;;;2.27;100.00
70954;BME280;58618;47.490;8.736;2023-01-08T03:24:52;95984.09;;;2.36;100.00
70954;BME280;58618;47.490;8.736;2023-01-08T03:27:23;95980.84;;;2.41;100.00
70954;BME280;58618;47.490;8.736;2023-01-08T03:29:56;95963.72;;;2.36;100.00
70954;BME280;58618;47.490;8.736;2023-01-08T03:32:26;95970.66;;;2.58;100.00
70954;BME280;58618;47.490;8.736;2023-01-08T03:34:56;95974.03;;;2.63;100.00
70954;BME280;58618;47.490;8.736;2023-01-08T03:37:28;95967.94;;;2.64;100.00
70954;BME280;58618;47.490;8.736;2023-01-08T03:39:59;95978.63;;;2.66;100.00
70954;BME280;58618;47.490;8.736;2023-01-08T03:42:30;95981.72;;;2.68;100.00
70954;BME280;58618;47.490;8.736;2023-01-08T03:45:00;95997.28;;;2.72;100.00
70954;BME280;58618;47.490;8.736;2023-01-08T03:47:28;95980.19;;;2.67;100.00
70954;BME280;58618;47.490;8.736;2023-01-08T03:49:59;95990.50;;;2.77;100.00
70954;BME280;58618;47.490;8.736;2023-01-08T03:52:29;95982.63;;;2.79;100.00
70954;BME280;58618;47.490;8.736;2023-01-08T03:54:56;95981.38;;;2.81;100.00
70954;BME280;58618;47.490;8.736;2023-01-08T03:57:24;95976.81;;;2.83;100.00
70954;BME280;58618;47.490;8.736;2023-01-08T03:59:51;95980.91;;;2.84;100.00
70954;BME280;58618;47.490;8.736;2023-01-08T04:02:20;95980.44;;;2.87;100.00
70954;BME280;58618;47.490;8.736;2023-01-08T04:04:47;95979.44;;;2.88;100.00
70954;BME280;58618;47.490;8.736;2023-01-08T04:07:15;95961.50;;;2.78;100.00
70954;BME280;58618;47.490;8.736;2023-01-08T04:09:43;95966.91;;;2.65;100.00
70954;BME280;58618;47.490;8.736;2023-01-08T04:12:10;95968.00;;;2.69;100.00
70954;BME280;58618;47.490;8.736;2023-01-08T04:14:37;95952.91;;;2.46;100.00
70954;BME280;58618;47.490;8.736;2023-01-08T04:17:04;95958.56;;;2.48;100.00
70954;BME280;58618;47.490;8.736;2023-01-08T04:19:33;95948.75;;;2.40;100.00
70954;BME280;58618;47.490;8.736;2023-01-08T04:22:00;95950.91;;;2.48;100.00
70954;BME280;58618;47.490;8.736;2023-01-08T04:24:28;95973.47;;;2.61;100.00
70954;BME280;58618;47.490;8.736;2023-01-08T04:26:55;95978.94;;;2.70;100.00
70954;BME280;58618;47.490;8.736;2023-01-08T04:29:22;95972.72;;;2.82;100.00
70954;BME280;58618;47.490;8.736;2023-01-08T04:31:49;95973.56;;;2.88;100.00
70954;BME280;58618;47.490;8.736;2023-01-08T04:34:17;95979.50;;;2.93;100.00
70954;BME280;58618;47.490;8.736;2023-01-08T04:36:45;95987.75;;;3.01;100.00
70954;BME280;58618;47.490;8.736;2023-01-08T04:39:12;95984.72;;;3.04;100.00
70954;BME280;58618;47.490;8.736;2023-01-08T04:41:40;95982.22;;;3.09;100.00
70954;BME280;58618;47.490;8.736;2023-01-08T04:44:07;95981.75;;;3.12;100.00
70954;BME280;58618;47.490;8.736;2023-01-08T04:46:35;95977.72;;;3.16;100.00
70954;BME280;58618;47.490;8.736;2023-01-08T04:49:02;95992.84;;;3.22;100.00
70954;BME280;58618;47.490;8.736;2023-01-08T04:51:30;95992.53;;;3.19;100.00
70954;BME280;58618;47.490;8.736;2023-01-08T04:53:58;95999.78;;;3.27;100.00
70954;BME280;58618;47.490;8.736;2023-01-08T04:56:25;95997.28;;;3.32;100.00
70954;BME280;58618;47.490;8.736;2023-01-08T04:58:52;95986.59;;;3.35;100.00
70954;BME280;58618;47.490;8.736;2023-01-08T05:01:22;95986.59;;;3.35;100.00
70954;BME280;58618;47.490;8.736;2023-01-08T05:03:52;95987.59;;;3.34;100.00
70954;BME280;58618;47.490;8.736;2023-01-08T05:06:19;95985.03;;;3.34;100.00
70954;BME280;58618;47.490;8.736;2023-01-08T05:08:46;95984.28;;;3.33;100.00
70954;BME280;58618;47.490;8.736;2023-01-08T05:11:15;95992.63;;;3.29;100.00
70954;BME280;58618;47.490;8.736;2023-01-08T05:13:42;95993.94;;;3.31;100.00
70954;BME280;58618;47.490;8.736;2023-01-08T05:16:10;95999.28;;;3.30;100.00
70954;BME280;58618;47.490;8.736;2023-01-08T05:18:40;95985.88;;;3.18;100.00
70954;BME280;58618;47.490;8.736;2023-01-08T05:21:07;95981.88;;;3.22;100.00
70954;BME280;58618;47.490;8.736;2023-01-08T05:23:35;95992.34;;;3.25;100.00
70954;BME280;58618;47.490;8.736;2023-01-08T05:26:04;96003.31;;;3.26;100.00
70954;BME280;58618;47.490;8.736;2023-01-08T05:28:33;96011.97;;;3.25;100.00
70954;BME280;58618;47.490;8.736;2023-01-08T05:31:00;95986.09;;;3.11;100.00
70954;BME280;58618;47.490;8.736;2023-01-08T05:33:27;96012.50;;;3.27;100.00
70954;BME280;58618;47.490;8.736;2023-01-08T05:35:55;96016.13;;;3.31;100.00
70954;BME280;58618;47.490;8.736;2023-01-08T05:38:22;96011.97;;;3.25;100.00
70954;BME280;58618;47.490;8.736;2023-01-08T05:40:51;96013.09;;;3.34;100.00
70954;BME280;58618;47.490;8.736;2023-01-08T05:43:18;96024.81;;;3.35;100.00
70954;BME280;58618;47.490;8.736;2023-01-08T05:45:46;96022.03;;;3.36;100.00
70954;BME280;58618;47.490;8.736;2023-01-08T05:48:13;96018.94;;;3.34;100.00
70954;BME280;58618;47.490;8.736;2023-01-08T05:50:41;96022.28;;;3.35;100.00
70954;BME280;58618;47.490;8.736;2023-01-08T05:53:09;96013.91;;;3.18;100.00
70954;BME280;58618;47.490;8.736;2023-01-08T05:55:36;96012.50;;;3.05;100.00
70954;BME280;58618;47.490;8.736;2023-01-08T05:58:04;96012.06;;;2.91;100.00
70954;BME280;58618;47.490;8.736;2023-01-08T06:00:33;96024.16;;;2.79;100.00
70954;BME280;58618;47.490;8.736;2023-01-08T06:03:01;96027.69;;;2.78;100.00
70954;BME280;58618;47.490;8.736;2023-01-08T06:05:29;96019.69;;;2.91;100.00
70954;BME280;58618;47.490;8.736;2023-01-08T06:07:56;96025.41;;;2.98;100.00
70954;BME280;58618;47.490;8.736;2023-01-08T06:10:24;96020.72;;;3.12;100.00
70954;BME280;58618;47.490;8.736;2023-01-08T06:12:52;96007.81;;;3.19;100.00
70954;BME280;58618;47.490;8.736;2023-01-08T06:15:19;96012.25;;;3.28;100.00
70954;BME280;58618;47.490;8.736;2023-01-08T06:17:46;96008.69;;;3.29;100.00
70954;BME280;58618;47.490;8.736;2023-01-08T06:20:15;96001.88;;;3.35;100.00
70954;BME280;58618;47.490;8.736;2023-01-08T06:22:42;96001.88;;;3.35;100.00
70954;BME280;58618;47.490;8.736;2023-01-08T06:25:09;96001.41;;;3.38;100.00
70954;BME280;58618;47.490;8.736;2023-01-08T06:27:37;96003.53;;;3.46;100.00
70954;BME280;58618;47.490;8.736;2023-01-08T06:30:05;95995.59;;;3.43;100.00
70954;BME280;58618;47.490;8.736;2023-01-08T06:32:33;95990.97;;;3.39;100.00
70954;BME280;58618;47.490;8.736;2023-01-08T06:35:01;95978.44;;;3.33;100.00
70954;BME280;58618;47.490;8.736;2023-01-08T06:37:30;95980.72;;;3.34;100.00
70954;BME280;58618;47.490;8.736;2023-01-08T06:39:57;95994.88;;;3.47;100.00
70954;BME280;58618;47.490;8.736;2023-01-08T06:42:24;95991.88;;;3.55;100.00
70954;BME280;58618;47.490;8.736;2023-01-08T06:44:51;95982.19;;;3.52;100.00
70954;BME280;58618;47.490;8.736;2023-01-08T06:47:19;95972.28;;;3.56;100.00
70954;BME280;58618;47.490;8.736;2023-01-08T06:49:46;95963.44;;;3.63;100.00
70954;BME280;58618;47.490;8.736;2023-01-08T06:52:13;95975.72;;;3.71;100.00
70954;BME280;58618;47.490;8.736;2023-01-08T06:54:41;95973.72;;;3.73;100.00
70954;BME280;58618;47.490;8.736;2023-01-08T06:57:08;95982.88;;;3.69;100.00
70954;BME280;58618;47.490;8.736;2023-01-08T06:59:36;95979.09;;;3.77;100.00
70954;BME280;58618;47.490;8.736;2023-01-08T07:02:03;95970.19;;;3.79;100.00
70954;BME280;58618;47.490;8.736;2023-01-08T07:04:30;95970.25;;;3.85;100.00
70954;BME280;58618;47.490;8.736;2023-01-08T07:06:57;95957.22;;;3.86;100.00
70954;BME280;58618;47.490;8.736;2023-01-08T07:09:24;95974.38;;;3.91;100.00
70954;BME280;58618;47.490;8.736;2023-01-08T07:11:53;95958.81;;;3.92;100.00
70954;BME280;58618;47.490;8.736;2023-01-08T07:14:20;95967.25;;;3.93;100.00
70954;BME280;58618;47.490;8.736;2023-01-08T07:16:47;95969.59;;;3.99;100.00
70954;BME280;58618;47.490;8.736;2023-01-08T07:19:15;95964.81;;;4.08;100.00
70954;BME280;58618;47.490;8.736;2023-01-08T07:21:42;95965.63;;;4.13;100.00
70954;BME280;58618;47.490;8.736;2023-01-08T07:24:09;95962.25;;;4.08;100.00
70954;BME280;58618;47.490;8.736;2023-01-08T07:26:36;95973.84;;;4.20;100.00
70954;BME280;58618;47.490;8.736;2023-01-08T07:29:06;95983.53;;;4.23;100.00
70954;BME280;58618;47.490;8.736;2023-01-08T07:31:33;95970.97;;;4.12;100.00
70954;BME280;58618;47.490;8.736;2023-01-08T07:34:00;95944.28;;;3.93;100.00
70954;BME280;58618;47.490;8.736;2023-01-08T07:36:28;95926.81;;;4.11;100.00
70954;BME280;58618;47.490;8.736;2023-01-08T07:38:55;95939.56;;;3.74;100.00
70954;BME280;58618;47.490;8.736;2023-01-08T07:41:22;95943.78;;;3.91;100.00
70954;BME280;58618;47.490;8.736;2023-01-08T07:43:50;95949.84;;;3.85;100.00
70954;BME280;58618;47.490;8.736;2023-01-08T07:46:19;95932.09;;;4.00;100.00
70954;BME280;58618;47.490;8.736;2023-01-08T07:48:48;95951.53;;;4.06;100.00
70954;BME280;58618;47.490;8.736;2023-01-08T07:51:15;95944.41;;;4.13;100.00
70954;BME280;58618;47.490;8.736;2023-01-08T07:53:42;95937.38;;;4.25;100.00
70954;BME280;58618;47.490;8.736;2023-01-08T07:56:10;95973.00;;;4.47;100.00
70954;BME280;58618;47.490;8.736;2023-01-08T07:58:37;95971.25;;;4.52;100.00
70954;BME280;58618;47.490;8.736;2023-01-08T08:01:08;95992.50;;;4.63;100.00
70954;BME280;58618;47.490;8.736;2023-01-08T08:03:38;95995.09;;;4.68;100.00
70954;BME280;58618;47.490;8.736;2023-01-08T08:06:05;95991.81;;;4.78;100.00
70954;BME280;58618;47.490;8.736;2023-01-08T08:08:33;95994.59;;;4.76;100.00
70954;BME280;58618;47.490;8.736;2023-01-08T08:11:00;96005.13;;;4.85;100.00
70954;BME280;58618;47.490;8.736;2023-01-08T08:13:28;96020.28;;;4.96;100.00
70954;BME280;58618;47.490;8.736;2023-01-08T08:16:00;96001.88;;;4.99;100.00
70954;BME280;58618;47.490;8.736;2023-01-08T08:18:27;96010.34;;;5.05;100.00
70954;BME280;58618;47.490;8.736;2023-01-08T08:20:55;96018.03;;;5.10;100.00
70954;BME280;58618;47.490;8.736;2023-01-08T08:23:23;96016.00;;;5.12;100.00
70954;BME280;58618;47.490;8.736;2023-01-08T08:25:51;96018.03;;;5.10;100.00
70954;BME280;58618;47.490;8.736;2023-01-08T08:28:19;96004.06;;;4.76;100.00
70954;BME280;58618;47.490;8.736;2023-01-08T08:30:46;96007.66;;;4.80;100.00
70954;BME280;58618;47.490;8.736;2023-01-08T08:33:13;96013.75;;;4.74;100.00
70954;BME280;58618;47.490;8.736;2023-01-08T08:35:47;96006.09;;;4.74;100.00
70954;BME280;58618;47.490;8.736;2023-01-08T08:38:16;96001.31;;;4.87;100.00
70954;BME280;58618;47.490;8.736;2023-01-08T08:40:43;95982.72;;;4.97;100.00
70954;BME280;58618;47.490;8.736;2023-01-08T08:43:10;96022.63;;;5.13;100.00
70954;BME280;58618;47.490;8.736;2023-01-08T08:45:37;96028.56;;;5.24;100.00
70954;BME280;58618;47.490;8.736;2023-01-08T08:48:05;96030.88;;;5.25;100.00
70954;BME280;58618;47.490;8.736;2023-01-08T08:50:34;96035.94;;;5.15;100.00
70954;BME280;58618;47.490;8.736;2023-01-08T08:53:02;96029.88;;;5.31;100.00
70954;BME280;58618;47.490;8.736;2023-01-08T08:55:32;96030.66;;;5.37;100.00
70954;BME280;58618;47.490;8.736;2023-01-08T08:58:03;96039.13;;;5.37;100.00
70954;BME280;58618;47.490;8.736;2023-01-08T09:00:31;96038.13;;;5.43;100.00
70954;BME280;58618;47.490;8.736;2023-01-08T09:02:58;96037.13;;;5.55;100.00
70954;BME280;58618;47.490;8.736;2023-01-08T09:05:25;96034.59;;;5.60;100.00
70954;BME280;58618;47.490;8.736;2023-01-08T09:07:52;96036.63;;;5.63;100.00
70954;BME280;58618;47.490;8.736;2023-01-08T09:10:20;96035.13;;;5.72;100.00
70954;BME280;58618;47.490;8.736;2023-01-08T09:12:48;96040.22;;;5.72;100.00
70954;BME280;58618;47.490;8.736;2023-01-08T09:15:16;96050.00;;;5.80;100.00
70954;BME280;58618;47.490;8.736;2023-01-08T09:17:43;96042.81;;;5.82;100.00
70954;BME280;58618;47.490;8.736;2023-01-08T09:20:10;96030.09;;;5.92;100.00
70954;BME280;58618;47.490;8.736;2023-01-08T09:22:37;96030.34;;;5.96;100.00
70954;BME280;58618;47.490;8.736;2023-01-08T09:25:05;96028.56;;;5.96;100.00
70954;BME280;58618;47.490;8.736;2023-01-08T09:27:32;96024.69;;;6.04;100.00
70954;BME280;58618;47.490;8.736;2023-01-08T09:30:01;96031.13;;;6.06;100.00
70954;BME280;58618;47.490;8.736;2023-01-08T09:32:30;96033.69;;;6.11;100.00
70954;BME280;58618;47.490;8.736;2023-01-08T09:34:57;96027.28;;;6.14;100.00
70954;BME280;58618;47.490;8.736;2023-01-08T09:37:24;96015.75;;;6.06;100.00
70954;BME280;58618;47.490;8.736;2023-01-08T09:39:52;96035.22;;;6.22;100.00
70954;BME280;58618;47.490;8.736;2023-01-08T09:42:21;96037.25;;;6.15;100.00
70954;BME280;58618;47.490;8.736;2023-01-08T09:44:54;96032.16;;;6.20;100.00
70954;BME280;58618;47.490;8.736;2023-01-08T09:47:30;96014.22;;;6.15;100.00
70954;BME280;58618;47.490;8.736;2023-01-08T09:50:00;96018.84;;;6.28;100.00
70954;BME280;58618;47.490;8.736;2023-01-08T09:52:30;96037.25;;;6.41;100.00
70954;BME280;58618;47.490;8.736;2023-01-08T10:05:00;96022.91;;;5.94;100.00
70954;BME280;58618;47.490;8.736;2023-01-08T10:07:29;96017.22;;;5.82;100.00
70954;BME280;58618;47.490;8.736;2023-01-08T10:09:59;96014.72;;;5.92;100.00
70954;BME280;58618;47.490;8.736;2023-01-08T10:12:27;96016.78;;;6.10;100.00
70954;BME280;58618;47.490;8.736;2023-01-08T10:14:58;95993.22;;;6.08;100.00
70954;BME280;58618;47.490;8.736;2023-01-08T10:17:33;96000.41;;;6.06;100.00
70954;BME280;58618;47.490;8.736;2023-01-08T10:20:10;95995.28;;;6.26;100.00
70954;BME280;58618;47.490;8.736;2023-01-08T10:22:37;96002.44;;;6.45;100.00
70954;BME280;58618;47.490;8.736;2023-01-08T10:25:08;95981.97;;;6.45;100.00
70954;BME280;58618;47.490;8.736;2023-01-08T10:27:43;95989.09;;;6.58;100.00
70954;BME280;58618;47.490;8.736;2023-01-08T10:30:15;95972.44;;;6.45;100.00
70954;BME280;58618;47.490;8.736;2023-01-08T10:32:46;95964.53;;;6.26;100.00
70954;BME280;58618;47.490;8.736;2023-01-08T10:35:19;95954.81;;;6.44;100.00
70954;BME280;58618;47.490;8.736;2023-01-08T10:37:47;95945.03;;;6.46;100.00
70954;BME280;58618;47.490;8.736;2023-01-08T10:40:25;95945.31;;;6.54;100.00
70954;BME280;58618;47.490;8.736;2023-01-08T10:43:04;95929.94;;;6.49;100.00
70954;BME280;58618;47.490;8.736;2023-01-08T10:45:33;95940.97;;;6.45;100.00
70954;BME280;58618;47.490;8.736;2023-01-08T10:48:04;95932.75;;;6.53;100.00
70954;BME280;58618;47.490;8.736;2023-01-08T10:50:34;95936.34;;;6.47;100.00
70954;BME280;58618;47.490;8.736;2023-01-08T10:53:03;95926.59;;;6.49;100.00
70954;BME280;58618;47.490;8.736;2023-01-08T10:55:32;95920.94;;;6.52;100.00
70954;BME280;58618;47.490;8.736;2023-01-08T10:58:02;95910.44;;;6.58;100.00
70954;BME280;58618;47.490;8.736;2023-01-08T11:00:32;95918.31;;;6.72;100.00
70954;BME280;58618;47.490;8.736;2023-01-08T11:03:02;95903.25;;;6.65;100.00
70954;BME280;58618;47.490;8.736;2023-01-08T11:05:33;95897.13;;;6.46;100.00
70954;BME280;58618;47.490;8.736;2023-01-08T11:08:04;95874.41;;;6.24;100.00
70954;BME280;58618;47.490;8.736;2023-01-08T11:10:33;95859.56;;;6.21;100.00
70954;BME280;58618;47.490;8.736;2023-01-08T11:13:04;95863.09;;;6.35;100.00
70954;BME280;58618;47.490;8.736;2023-01-08T11:15:35;95876.41;;;6.48;100.00
70954;BME280;58618;47.490;8.736;2023-01-08T11:18:19;95873.31;;;6.46;100.00
70954;BME280;58618;47.490;8.736;2023-01-08T11:20:50;95849.81;;;6.28;100.00
70954;BME280;58618;47.490;8.736;2023-01-08T11:23:19;95844.75;;;6.18;100.00
70954;BME280;58618;47.490;8.736;2023-01-08T11:25:53;95833.97;;;6.21;100.00
70954;BME280;58618;47.490;8.736;2023-01-08T11:28:28;95822.19;;;6.20;100.00
70954;BME280;58618;47.490;8.736;2023-01-08T11:31:04;95834.38;;;6.49;100.00
70954;BME280;58618;47.490;8.736;2023-01-08T11:33:37;95826.09;;;6.67;100.00
70954;BME280;58618;47.490;8.736;2023-01-08T11:36:11;95824.53;;;6.76;100.00
70954;BME280;58618;47.490;8.736;2023-01-08T11:38:41;95821.16;;;6.86;100.00
70954;BME280;58618;47.490;8.736;2023-01-08T11:44:12;95788.97;;;7.03;100.00
70954;BME280;58618;47.490;8.736;2023-01-08T11:46:49;95790.50;;;7.04;100.00
70954;BME280;58618;47.490;8.736;2023-01-08T11:49:33;95785.75;;;6.88;100.00
70954;BME280;58618;47.490;8.736;2023-01-08T11:52:17;95751.31;;;6.65;100.00
70954;BME280;58618;47.490;8.736;2023-01-08T11:55:05;95760.47;;;6.76;100.00
70954;BME280;58618;47.490;8.736;2023-01-08T11:57:45;95756.81;;;6.82;100.00
70954;BME280;58618;47.490;8.736;2023-01-08T12:01:17;95751.06;;;7.00;100.00
70954;BME280;58618;47.490;8.736;2023-01-08T12:03:51;95755.16;;;7.01;100.00
70954;BME280;58618;47.490;8.736;2023-01-08T12:06:30;95746.84;;;7.14;100.00
70954;BME280;58618;47.490;8.736;2023-01-08T12:09:11;95739.06;;;7.25;100.00
70954;BME280;58618;47.490;8.736;2023-01-08T12:11:45;95742.66;;;7.29;100.00
70954;BME280;58618;47.490;8.736;2023-01-08T12:14:32;95727.22;;;7.34;100.00
70954;BME280;58618;47.490;8.736;2023-01-08T12:17:22;95713.88;;;7.32;100.00
70954;BME280;58618;47.490;8.736;2023-01-08T12:20:06;95717.94;;;7.38;100.00
70954;BME280;58618;47.490;8.736;2023-01-08T12:22:43;95720.41;;;7.48;100.00
70954;BME280;58618;47.490;8.736;2023-01-08T12:25:28;95713.25;;;7.45;100.00
70954;BME280;58618;47.490;8.736;2023-01-08T12:28:04;95715.22;;;7.53;100.00
70954;BME280;58618;47.490;8.736;2023-01-08T12:30:45;95722.88;;;7.58;100.00
70954;BME280;58618;47.490;8.736;2023-01-08T12:33:23;95716.19;;;7.57;100.00
70954;BME280;58618;47.490;8.736;2023-01-08T12:35:57;95722.03;;;7.39;100.00
70954;BME280;58618;47.490;8.736;2023-01-08T12:38:29;95709.72;;;7.36;100.00
70954;BME280;58618;47.490;8.736;2023-01-08T12:41:04;95714.03;;;7.45;100.00
70954;BME280;58618;47.490;8.736;2023-01-08T12:43:47;95714.28;;;7.44;100.00
70954;BME280;58618;47.490;8.736;2023-01-08T12:46:17;95717.38;;;7.41;100.00
70954;BME280;58618;47.490;8.736;2023-01-08T12:48:46;95720.25;;;7.39;100.00
70954;BME280;58618;47.490;8.736;2023-01-08T12:51:18;95708.09;;;7.50;100.00
70954;BME280;58618;47.490;8.736;2023-01-08T12:53:55;95709.78;;;7.59;100.00
70954;BME280;58618;47.490;8.736;2023-01-08T12:56:32;95702.78;;;7.65;100.00
70954;BME280;58618;47.490;8.736;2023-01-08T12:59:10;95703.59;;;7.60;100.00
70954;BME280;58618;47.490;8.736;2023-01-08T13:01:46;95711.06;;;7.57;100.00
70954;BME280;58618;47.490;8.736;2023-01-08T13:04:15;95703.31;;;7.62;100.00
70954;BME280;58618;47.490;8.736;2023-01-08T13:06:50;95707.97;;;7.60;100.00
70954;BME280;58618;47.490;8.736;2023-01-08T13:09:21;95702.06;;;7.59;100.00
70954;BME280;58618;47.490;8.736;2023-01-08T13:11:53;95697.22;;;7.58;100.00
70954;BME280;58618;47.490;8.736;2023-01-08T13:14:21;95685.97;;;7.54;100.00
70954;BME280;58618;47.490;8.736;2023-01-08T13:17:00;95683.13;;;7.55;100.00
70954;BME280;58618;47.490;8.736;2023-01-08T13:19:31;95683.91;;;7.56;100.00
70954;BME280;58618;47.490;8.736;2023-01-08T13:22:00;95674.94;;;7.25;100.00
70954;BME280;58618;47.490;8.736;2023-01-08T13:24:30;95670.63;;;7.20;100.00
70954;BME280;58618;47.490;8.736;2023-01-08T13:27:19;95664.41;;;7.02;100.00
70954;BME280;58618;47.490;8.736;2023-01-08T13:29:50;95662.34;;;6.99;100.00
70954;BME280;58618;47.490;8.736;2023-01-08T13:32:25;95660.66;;;6.90;100.00
70954;BME280;58618;47.490;8.736;2023-01-08T13:35:01;95646.13;;;6.80;100.00